Time;durP1;ratioP1;P1;durP2;ratioP2;P2;SDS_P1;SDS_P2;PMS_P1;PMS_P2;Temp;Humidity;BMP_temperature;BMP_pressure;BME280_temperature;BME280_humidity;BME280_pressure;Samples;Min_cycle;Max_cycle;Signal;HPM_P1;HPM_P2
2021/09/10 00:00:48;;;;;;;7.63;3.22;;;;;;;;;;4975142;28;20165;-86
2021/09/10 00:03:14;;;;;;;5.43;2.58;;;;;;;;;;4976029;28;20043;-88
2021/09/10 00:05:41;;;;;;;5.63;2.90;;;;;;;;;;4975193;28;20395;-88
2021/09/10 00:08:07;;;;;;;8.70;3.45;;;;;;;;;;4975115;28;20023;-88
2021/09/10 00:10:33;;;;;;;7.47;2.90;;;;;;;;;;4975180;28;20031;-90
2021/09/10 00:13:00;;;;;;;11.02;3.78;;;;;;;;;;4975028;28;20074;-90
2021/09/10 00:15:27;;;;;;;8.07;3.95;;;;;;;;;;4974867;28;20535;-90
2021/09/10 00:17:53;;;;;;;8.05;3.13;;;;;;;;;;4976691;28;20379;-88
2021/09/10 00:20:20;;;;;;;5.35;2.65;;;;;;;;;;4975155;28;20034;-91
2021/09/10 00:22:46;;;;;;;10.55;3.50;;;;;;;;;;4975870;28;20035;-86
2021/09/10 00:25:12;;;;;;;5.70;2.72;;;;;;;;;;4974884;28;20027;-88
2021/09/10 00:27:38;;;;;;;6.68;2.55;;;;;;;;;;4975626;28;20054;-88
2021/09/10 00:30:05;;;;;;;7.28;3.20;;;;;;;;;;4974662;28;20026;-88
2021/09/10 00:32:31;;;;;;;7.10;2.88;;;;;;;;;;4974774;28;20023;-88
2021/09/10 00:34:57;;;;;;;5.80;2.47;;;;;;;;;;4974641;28;20065;-88
2021/09/10 00:37:24;;;;;;;4.60;2.67;;;;;;;;;;4976210;28;20097;-88
2021/09/10 00:39:50;;;;;;;5.97;2.70;;;;;;;;;;4974615;28;20027;-87
2021/09/10 00:42:16;;;;;;;5.68;3.05;;;;;;;;;;4974669;28;20038;-88
2021/09/10 00:44:43;;;;;;;5.20;2.45;;;;;;;;;;4974659;28;20022;-91
2021/09/10 00:47:09;;;;;;;12.52;2.83;;;;;;;;;;4974573;28;20038;-87
2021/09/10 00:49:35;;;;;;;4.47;2.30;;;;;;;;;;4975511;28;20062;-86
2021/09/10 00:52:01;;;;;;;5.70;3.20;;;;;;;;;;4973880;28;20035;-88
2021/09/10 00:54:28;;;;;;;4.95;2.63;;;;;;;;;;4973843;28;20129;-86
2021/09/10 00:56:54;;;;;;;3.88;2.20;;;;;;;;;;4974173;28;20494;-86
2021/09/10 00:59:20;;;;;;;4.70;2.38;;;;;;;;;;4974354;28;20029;-86
2021/09/10 01:01:46;;;;;;;4.68;2.63;;;;;;;;;;4974171;28;20149;-88
2021/09/10 01:04:12;;;;;;;8.27;3.08;;;;;;;;;;4974333;28;20023;-87
2021/09/10 01:06:39;;;;;;;6.88;3.03;;;;;;;;;;4975341;28;20035;-87
2021/09/10 01:09:07;;;;;;;5.63;2.58;;;;;;;;;;4974065;28;20030;-87
2021/09/10 01:11:33;;;;;;;6.15;2.63;;;;;;;;;;4974002;28;20392;-86
2021/09/10 01:14:00;;;;;;;7.97;3.00;;;;;;;;;;4975453;28;20023;-85
2021/09/10 01:16:26;;;;;;;5.28;2.85;;;;;;;;;;4973698;28;20037;-90
2021/09/10 01:18:53;;;;;;;4.55;2.63;;;;;;;;;;4973719;28;20531;-86
2021/09/10 01:21:19;;;;;;;5.18;2.70;;;;;;;;;;4973817;28;20029;-87
2021/09/10 01:23:45;;;;;;;5.75;2.80;;;;;;;;;;4975479;28;20027;-85
2021/09/10 01:26:11;;;;;;;5.38;2.55;;;;;;;;;;4973687;28;20066;-85
2021/09/10 01:28:37;;;;;;;5.30;2.88;;;;;;;;;;4974869;28;20041;-85
2021/09/10 01:31:04;;;;;;;5.20;2.75;;;;;;;;;;4975239;28;20023;-88
2021/09/10 01:33:30;;;;;;;4.55;2.47;;;;;;;;;;4973958;28;20031;-87
2021/09/10 01:35:56;;;;;;;5.43;2.40;;;;;;;;;;4973669;28;20495;-85
2021/09/10 01:38:24;;;;;;;5.97;2.90;;;;;;;;;;4973544;28;20031;-84
2021/09/10 01:40:50;;;;;;;5.35;3.15;;;;;;;;;;4973553;28;20030;-87
2021/09/10 01:43:17;;;;;;;5.07;2.63;;;;;;;;;;4973617;28;20034;-85
2021/09/10 01:45:43;;;;;;;7.05;3.25;;;;;;;;;;4973626;28;20031;-85
2021/09/10 01:48:09;;;;;;;6.70;3.08;;;;;;;;;;4974220;28;20077;-86
2021/09/10 01:50:35;;;;;;;5.75;2.50;;;;;;;;;;4975143;28;20471;-86
2021/09/10 01:53:02;;;;;;;8.95;2.65;;;;;;;;;;4973606;28;20027;-85
2021/09/10 01:55:30;;;;;;;9.00;2.30;;;;;;;;;;4973529;28;20039;-88
2021/09/10 01:57:56;;;;;;;5.30;2.90;;;;;;;;;;4973593;28;20472;-89
2021/09/10 02:00:22;;;;;;;6.80;2.88;;;;;;;;;;4973686;28;20546;-93
2021/09/10 02:02:48;;;;;;;6.63;3.15;;;;;;;;;;4974494;28;20066;-89
2021/09/10 02:05:15;;;;;;;5.85;2.90;;;;;;;;;;4977555;28;20023;-89
2021/09/10 02:07:41;;;;;;;6.95;2.97;;;;;;;;;;4977347;28;20023;-89
2021/09/10 02:10:07;;;;;;;7.85;2.60;;;;;;;;;;4977317;28;20399;-89
2021/09/10 02:12:34;;;;;;;6.05;2.75;;;;;;;;;;4978479;28;20102;-88
2021/09/10 02:15:00;;;;;;;5.35;2.75;;;;;;;;;;4977250;28;20118;-91
2021/09/10 02:17:26;;;;;;;5.80;2.58;;;;;;;;;;4977162;28;20037;-90
2021/09/10 02:19:53;;;;;;;7.05;3.03;;;;;;;;;;4977281;28;20089;-90
2021/09/10 02:22:19;;;;;;;5.35;2.78;;;;;;;;;;4978364;28;20054;-93
2021/09/10 02:24:46;;;;;;;4.97;2.83;;;;;;;;;;4977262;28;20061;-89
2021/09/10 02:27:12;;;;;;;6.43;2.40;;;;;;;;;;4976878;28;20122;-92
2021/09/10 02:29:38;;;;;;;5.28;2.80;;;;;;;;;;4978611;28;20031;-89
2021/09/10 02:32:04;;;;;;;6.57;2.88;;;;;;;;;;4976795;28;20034;-87
2021/09/10 02:34:31;;;;;;;7.00;3.03;;;;;;;;;;4976651;28;20034;-89
2021/09/10 02:36:57;;;;;;;6.80;3.30;;;;;;;;;;4976521;28;20383;-84
2021/09/10 02:39:23;;;;;;;15.20;3.00;;;;;;;;;;4976596;28;20170;-84
2021/09/10 02:41:49;;;;;;;6.95;2.92;;;;;;;;;;4976621;28;20026;-89
2021/09/10 02:44:16;;;;;;;4.78;2.65;;;;;;;;;;4976718;28;20027;-91
2021/09/10 02:46:42;;;;;;;6.22;2.75;;;;;;;;;;4977683;28;20391;-88
2021/09/10 02:49:08;;;;;;;4.97;2.83;;;;;;;;;;4976627;28;20028;-89
2021/09/10 02:51:34;;;;;;;8.77;2.70;;;;;;;;;;4976614;28;20054;-89
2021/09/10 02:54:01;;;;;;;6.28;2.67;;;;;;;;;;4976361;28;20043;-92
2021/09/10 02:56:27;;;;;;;9.52;3.38;;;;;;;;;;4977324;28;20035;-89
2021/09/10 02:58:53;;;;;;;5.57;3.25;;;;;;;;;;4977481;28;20392;-90
2021/09/10 03:01:20;;;;;;;6.55;3.25;;;;;;;;;;4976517;28;20034;-92
2021/09/10 03:03:46;;;;;;;4.60;2.78;;;;;;;;;;4976286;28;20461;-85
2021/09/10 03:06:12;;;;;;;9.15;2.83;;;;;;;;;;4976269;28;20031;-89
2021/09/10 03:08:39;;;;;;;4.95;2.63;;;;;;;;;;4976302;28;20027;-92
2021/09/10 03:11:05;;;;;;;6.85;2.67;;;;;;;;;;4977259;28;20027;-85
2021/09/10 03:13:31;;;;;;;5.75;2.67;;;;;;;;;;4976127;28;20031;-88
2021/09/10 03:15:57;;;;;;;5.68;3.22;;;;;;;;;;4975569;28;20038;-84
2021/09/10 03:18:23;;;;;;;5.30;2.95;;;;;;;;;;4977666;28;20030;-84
2021/09/10 03:20:50;;;;;;;7.75;3.20;;;;;;;;;;4975752;28;20027;-89
2021/09/10 03:23:16;;;;;;;7.07;3.50;;;;;;;;;;4975824;28;20038;-91
2021/09/10 03:25:42;;;;;;;9.40;2.97;;;;;;;;;;4976105;28;20466;-89
2021/09/10 03:28:08;;;;;;;7.43;3.25;;;;;;;;;;4976003;28;20023;-89
2021/09/10 03:30:34;;;;;;;5.57;2.92;;;;;;;;;;4975836;28;20045;-84
2021/09/10 03:33:00;;;;;;;5.30;2.63;;;;;;;;;;4975927;28;20045;-89
2021/09/10 03:35:27;;;;;;;7.60;3.95;;;;;;;;;;4975192;28;20042;-84
2021/09/10 03:37:53;;;;;;;8.23;3.42;;;;;;;;;;4975645;28;20026;-87
2021/09/10 03:40:24;;;;;;;10.25;3.38;;;;;;;;;;4975780;28;20061;-85
2021/09/10 03:42:50;;;;;;;7.07;3.72;;;;;;;;;;4977363;28;20106;-85
2021/09/10 03:45:16;;;;;;;9.00;3.65;;;;;;;;;;4975365;28;20054;-87
2021/09/10 03:47:42;;;;;;;7.53;3.40;;;;;;;;;;4976070;28;20018;-91
2021/09/10 03:50:09;;;;;;;7.78;4.07;;;;;;;;;;4975462;28;20365;-90
2021/09/10 03:52:35;;;;;;;7.85;3.35;;;;;;;;;;4976068;28;20023;-86
2021/09/10 03:55:01;;;;;;;8.20;3.25;;;;;;;;;;4975139;28;20046;-87
2021/09/10 03:57:27;;;;;;;6.82;3.53;;;;;;;;;;4975246;28;20030;-88
2021/09/10 03:59:53;;;;;;;6.75;3.15;;;;;;;;;;4975406;28;20030;-93
2021/09/10 04:02:19;;;;;;;9.45;4.03;;;;;;;;;;4976459;28;20051;-88
2021/09/10 04:04:46;;;;;;;6.93;3.80;;;;;;;;;;4975130;28;20033;-89
2021/09/10 04:07:12;;;;;;;8.88;3.97;;;;;;;;;;4975508;28;20034;-86
2021/09/10 04:09:38;;;;;;;9.02;3.20;;;;;;;;;;4975123;28;20026;-88
2021/09/10 04:12:04;;;;;;;8.73;3.25;;;;;;;;;;4976280;28;20035;-84
2021/09/10 04:14:30;;;;;;;15.73;4.38;;;;;;;;;;4975057;28;20133;-90
2021/09/10 04:16:56;;;;;;;7.30;3.88;;;;;;;;;;4975123;28;20483;-86
2021/09/10 04:19:23;;;;;;;11.25;3.70;;;;;;;;;;4974894;28;20019;-90
2021/09/10 04:21:49;;;;;;;7.60;3.80;;;;;;;;;;4975041;28;20034;-92
2021/09/10 04:24:17;;;;;;;8.05;3.33;;;;;;;;;;4975888;28;20030;-90
2021/09/10 04:26:44;;;;;;;11.35;4.32;;;;;;;;;;4974681;28;20125;-90
2021/09/10 04:29:10;;;;;;;9.70;4.05;;;;;;;;;;4975425;28;20445;-86
2021/09/10 04:31:36;;;;;;;9.93;3.83;;;;;;;;;;4974973;28;20027;-88
2021/09/10 04:34:04;;;;;;;5.97;3.53;;;;;;;;;;4974681;28;20050;-90
2021/09/10 04:36:30;;;;;;;6.75;3.67;;;;;;;;;;4974701;28;20039;-87
2021/09/10 04:38:56;;;;;;;9.57;4.30;;;;;;;;;;4974577;28;20027;-92
2021/09/10 04:41:22;;;;;;;7.90;4.22;;;;;;;;;;4975708;28;20105;-88
2021/09/10 04:43:48;;;;;;;7.32;3.78;;;;;;;;;;4974513;28;20022;-92
2021/09/10 04:46:15;;;;;;;8.70;4.20;;;;;;;;;;4974421;28;20380;-87
2021/09/10 04:48:41;;;;;;;10.43;4.55;;;;;;;;;;4974423;28;20027;-90
2021/09/10 04:51:07;;;;;;;12.02;4.85;;;;;;;;;;4974316;28;20034;-91
2021/09/10 04:53:33;;;;;;;7.13;4.60;;;;;;;;;;4975802;28;20065;-92
2021/09/10 04:56:01;;;;;;;11.18;4.57;;;;;;;;;;4974580;28;20530;-89
2021/09/10 04:58:27;;;;;;;7.25;3.80;;;;;;;;;;4975847;28;20019;-90
2021/09/10 05:00:53;;;;;;;9.75;3.83;;;;;;;;;;4974340;28;20434;-88
2021/09/10 05:03:20;;;;;;;10.50;4.38;;;;;;;;;;4973915;28;20043;-89
2021/09/10 05:05:46;;;;;;;11.57;4.47;;;;;;;;;;4975173;28;20485;-89
2021/09/10 05:08:12;;;;;;;9.10;4.60;;;;;;;;;;4973993;28;20029;-91
2021/09/10 05:10:38;;;;;;;12.30;3.72;;;;;;;;;;4975278;28;20034;-89
2021/09/10 05:13:04;;;;;;;10.38;4.60;;;;;;;;;;4973896;28;20130;-87
2021/09/10 05:15:30;;;;;;;10.90;4.72;;;;;;;;;;4973943;28;20047;-87
2021/09/10 05:17:56;;;;;;;14.25;4.75;;;;;;;;;;4974113;28;20534;-89
2021/09/10 05:20:23;;;;;;;9.43;4.75;;;;;;;;;;4974053;28;20022;-90
2021/09/10 05:22:50;;;;;;;10.38;4.88;;;;;;;;;;4973667;28;20027;-88
2021/09/10 05:25:16;;;;;;;14.30;5.05;;;;;;;;;;4975038;28;20380;-90
2021/09/10 05:27:42;;;;;;;12.55;4.85;;;;;;;;;;4975064;28;20090;-86
2021/09/10 05:30:08;;;;;;;12.75;5.45;;;;;;;;;;4973691;28;20030;-87
2021/09/10 05:32:35;;;;;;;11.90;5.57;;;;;;;;;;4973767;28;20054;-87
2021/09/10 05:35:01;;;;;;;9.10;5.68;;;;;;;;;;4973616;28;20117;-84
2021/09/10 05:37:27;;;;;;;11.60;5.30;;;;;;;;;;4975286;28;20193;-85
2021/09/10 05:39:53;;;;;;;16.30;6.07;;;;;;;;;;4975742;28;20583;-86
2021/09/10 05:42:19;;;;;;;12.60;6.55;;;;;;;;;;4977237;28;20034;-86
2021/09/10 05:44:45;;;;;;;11.40;5.10;;;;;;;;;;4980722;28;20030;-83
2021/09/10 05:47:12;;;;;;;10.70;6.07;;;;;;;;;;4973012;28;20031;-83
2021/09/10 05:49:38;;;;;;;13.48;6.32;;;;;;;;;;4976923;28;20031;-83
2021/09/10 05:52:09;;;;;;;14.65;5.97;;;;;;;;;;4976824;28;20030;-84
2021/09/10 05:54:35;;;;;;;8.00;5.20;;;;;;;;;;4976783;28;20483;-85
2021/09/10 05:57:01;;;;;;;11.00;4.95;;;;;;;;;;4977013;28;20043;-83
2021/09/10 05:59:27;;;;;;;9.88;4.18;;;;;;;;;;4977052;28;20058;-84
2021/09/10 06:01:54;;;;;;;12.82;4.50;;;;;;;;;;4976672;28;20059;-85
2021/09/10 06:04:20;;;;;;;11.30;3.72;;;;;;;;;;4976798;28;20042;-86
2021/09/10 06:06:46;;;;;;;14.43;2.67;;;;;;;;;;4976774;28;20035;-86
2021/09/10 06:09:12;;;;;;;4.43;1.85;;;;;;;;;;4976734;28;20027;-86
2021/09/10 06:11:38;;;;;;;4.68;2.47;;;;;;;;;;4976728;28;20023;-84
2021/09/10 06:14:04;;;;;;;5.20;2.50;;;;;;;;;;4977839;28;20031;-86
2021/09/10 06:16:30;;;;;;;5.97;2.50;;;;;;;;;;4977067;28;20403;-85
2021/09/10 06:18:56;;;;;;;6.38;2.38;;;;;;;;;;4976551;28;20031;-83
2021/09/10 06:21:23;;;;;;;6.72;2.58;;;;;;;;;;4976499;28;20019;-86
2021/09/10 06:23:49;;;;;;;4.63;2.17;;;;;;;;;;4977686;28;20031;-86
2021/09/10 06:26:15;;;;;;;6.57;2.67;;;;;;;;;;4976165;28;20475;-88
2021/09/10 06:28:42;;;;;;;5.82;2.42;;;;;;;;;;4976304;28;20042;-85
2021/09/10 06:31:08;;;;;;;4.65;2.58;;;;;;;;;;4978085;28;20098;-87
2021/09/10 06:33:34;;;;;;;5.38;2.47;;;;;;;;;;4976141;28;20026;-87
2021/09/10 06:36:00;;;;;;;4.70;2.63;;;;;;;;;;4976180;28;20488;-87
2021/09/10 06:38:26;;;;;;;8.43;2.60;;;;;;;;;;4976131;28;20054;-87
2021/09/10 06:40:53;;;;;;;7.88;3.03;;;;;;;;;;4976341;28;20196;-88
2021/09/10 06:43:19;;;;;;;5.25;2.80;;;;;;;;;;4977325;28;20030;-87
2021/09/10 06:45:46;;;;;;;9.50;2.80;;;;;;;;;;4976022;28;20035;-87
2021/09/10 06:48:12;;;;;;;9.23;2.80;;;;;;;;;;4976005;28;20034;-87
2021/09/10 06:50:38;;;;;;;5.32;2.72;;;;;;;;;;4974753;28;20086;-82
2021/09/10 06:53:06;;;;;;;6.50;2.35;;;;;;;;;;4977724;28;20023;-84
2021/09/10 06:55:32;;;;;;;5.25;2.47;;;;;;;;;;4977092;28;20429;-86
2021/09/10 06:57:58;;;;;;;9.30;3.03;;;;;;;;;;4977649;28;20098;-85
2021/09/10 07:00:24;;;;;;;5.20;2.65;;;;;;;;;;4975765;28;20514;-86
2021/09/10 07:02:50;;;;;;;4.60;2.53;;;;;;;;;;4977101;28;20106;-84
2021/09/10 07:05:17;;;;;;;12.63;3.17;;;;;;;;;;4976913;28;20097;-84
2021/09/10 07:07:43;;;;;;;8.80;3.42;;;;;;;;;;4975797;28;20030;-82
2021/09/10 07:10:10;;;;;;;5.32;2.60;;;;;;;;;;4975744;28;20031;-82
2021/09/10 07:12:36;;;;;;;6.43;2.60;;;;;;;;;;4975690;28;20058;-83
2021/09/10 07:15:03;;;;;;;5.75;3.00;;;;;;;;;;4975438;28;20480;-82
2021/09/10 07:17:32;;;;;;;8.45;3.00;;;;;;;;;;4976769;28;20085;-84
2021/09/10 07:19:58;;;;;;;5.53;2.65;;;;;;;;;;4975487;28;20499;-84
2021/09/10 07:22:24;;;;;;;10.32;3.10;;;;;;;;;;4975354;28;20042;-84
2021/09/10 07:24:51;;;;;;;7.65;3.30;;;;;;;;;;4976712;28;20049;-85
2021/09/10 07:27:17;;;;;;;6.88;2.38;;;;;;;;;;4975367;28;20027;-84
2021/09/10 07:29:43;;;;;;;8.95;2.85;;;;;;;;;;4975246;28;20046;-86
2021/09/10 07:32:09;;;;;;;8.13;2.75;;;;;;;;;;4975337;28;20387;-86
2021/09/10 07:34:35;;;;;;;5.32;2.42;;;;;;;;;;4975084;28;20023;-86
2021/09/10 07:37:02;;;;;;;8.82;3.10;;;;;;;;;;4975207;28;20042;-85
2021/09/10 07:39:28;;;;;;;6.25;2.95;;;;;;;;;;4975007;28;20113;-86
2021/09/10 07:41:54;;;;;;;6.53;2.63;;;;;;;;;;4974937;28;20030;-86
2021/09/10 07:44:20;;;;;;;5.05;3.10;;;;;;;;;;4974944;28;20019;-85
2021/09/10 07:46:51;;;;;;;4.63;2.67;;;;;;;;;;4974824;28;20428;-86
2021/09/10 07:49:17;;;;;;;5.17;3.27;;;;;;;;;;4974931;28;20031;-85
2021/09/10 07:51:44;;;;;;;10.07;3.05;;;;;;;;;;4974853;28;20035;-83
2021/09/10 07:54:10;;;;;;;4.25;2.65;;;;;;;;;;4976485;28;20464;-84
2021/09/10 07:56:36;;;;;;;5.28;2.75;;;;;;;;;;4975972;28;20093;-84
2021/09/10 07:59:02;;;;;;;3.65;2.33;;;;;;;;;;4976539;28;20027;-84
2021/09/10 08:01:29;;;;;;;5.10;2.80;;;;;;;;;;4974149;28;20088;-85
2021/09/10 08:03:55;;;;;;;6.65;2.70;;;;;;;;;;4975855;28;20027;-84
2021/09/10 08:06:21;;;;;;;5.03;2.60;;;;;;;;;;4974756;28;20019;-85
2021/09/10 08:08:47;;;;;;;4.57;2.58;;;;;;;;;;4974754;28;20034;-85
2021/09/10 08:11:13;;;;;;;5.53;2.80;;;;;;;;;;4974794;28;20019;-86
2021/09/10 08:13:40;;;;;;;9.70;2.65;;;;;;;;;;4976140;28;20031;-86
2021/09/10 08:16:06;;;;;;;5.30;2.58;;;;;;;;;;4974335;28;20031;-84
2021/09/10 08:18:32;;;;;;;7.60;3.10;;;;;;;;;;4975252;28;20058;-85
2021/09/10 08:20:59;;;;;;;7.72;2.97;;;;;;;;;;4974242;28;20480;-81
2021/09/10 08:23:25;;;;;;;7.22;2.00;;;;;;;;;;4975321;28;20019;-86
2021/09/10 08:25:52;;;;;;;7.47;2.40;;;;;;;;;;4974298;28;20498;-82
2021/09/10 08:28:18;;;;;;;8.50;2.75;;;;;;;;;;4974202;28;20469;-84
2021/09/10 08:30:46;;;;;;;5.65;2.50;;;;;;;;;;4974528;28;20062;-83
2021/09/10 08:33:12;;;;;;;11.13;3.40;;;;;;;;;;4975468;28;20365;-83
2021/09/10 08:35:39;;;;;;;8.90;2.53;;;;;;;;;;4974971;28;20131;-83
2021/09/10 08:38:06;;;;;;;5.43;2.55;;;;;;;;;;4975075;28;20031;-83
2021/09/10 08:40:35;;;;;;;10.43;2.38;;;;;;;;;;4974297;28;20026;-82
2021/09/10 08:43:01;;;;;;;5.03;1.88;;;;;;;;;;4974292;28;20077;-83
2021/09/10 08:45:28;;;;;;;5.40;2.55;;;;;;;;;;4976468;28;20031;-82
2021/09/10 08:47:55;;;;;;;3.42;1.83;;;;;;;;;;4974512;28;20050;-85
2021/09/10 08:50:23;;;;;;;6.32;2.05;;;;;;;;;;4975096;28;20117;-85
2021/09/10 08:52:49;;;;;;;3.50;1.90;;;;;;;;;;4973821;28;20026;-86
2021/09/10 08:55:16;;;;;;;3.28;1.63;;;;;;;;;;4973744;28;20046;-86
2021/09/10 08:57:52;;;;;;;4.18;1.98;;;;;;;;;;4973662;28;20030;-86
2021/09/10 09:00:25;;;;;;;4.47;1.98;;;;;;;;;;4973730;28;20030;-86
2021/09/10 09:03:02;;;;;;;3.65;1.90;;;;;;;;;;4973413;28;20141;-86
2021/09/10 09:05:29;;;;;;;3.45;1.83;;;;;;;;;;4974852;28;20043;-85
2021/09/10 09:08:08;;;;;;;3.72;1.75;;;;;;;;;;4973556;28;20097;-83
2021/09/10 09:10:53;;;;;;;3.67;1.77;;;;;;;;;;4973504;28;20027;-84
2021/09/10 09:13:20;;;;;;;7.90;2.15;;;;;;;;;;4973026;28;20396;-86
2021/09/10 09:15:46;;;;;;;4.97;1.83;;;;;;;;;;4973455;28;20553;-83
2021/09/10 09:18:13;;;;;;;5.60;1.77;;;;;;;;;;4974758;28;20023;-86
2021/09/10 09:20:39;;;;;;;3.85;1.75;;;;;;;;;;4975337;28;20022;-87
2021/09/10 09:23:12;;;;;;;3.55;2.28;;;;;;;;;;4974621;28;20027;-84
2021/09/10 09:25:41;;;;;;;6.35;1.63;;;;;;;;;;4973391;28;20474;-83
2021/09/10 09:28:26;;;;;;;5.03;1.80;;;;;;;;;;4974550;28;20030;-85
2021/09/10 09:30:53;;;;;;;7.65;2.08;;;;;;;;;;4973360;28;20522;-86
2021/09/10 09:33:19;;;;;;;3.75;1.80;;;;;;;;;;4973947;28;20560;-83
2021/09/10 09:35:47;;;;;;;5.30;1.90;;;;;;;;;;4974368;28;20125;-83
2021/09/10 09:38:17;;;;;;;6.30;1.85;;;;;;;;;;4974534;28;20023;-83
2021/09/10 09:40:44;;;;;;;6.22;2.13;;;;;;;;;;4974536;28;20025;-83
2021/09/10 09:43:19;;;;;;;4.07;1.70;;;;;;;;;;4974453;28;20030;-83
2021/09/10 09:45:47;;;;;;;4.55;1.67;;;;;;;;;;4973208;28;20543;-86
2021/09/10 09:48:13;;;;;;;3.28;1.67;;;;;;;;;;4972965;28;20027;-85
2021/09/10 09:50:40;;;;;;;3.63;1.45;;;;;;;;;;4972693;28;20023;-85
2021/09/10 09:53:06;;;;;;;4.47;1.30;;;;;;;;;;4973026;28;20031;-83
2021/09/10 09:55:33;;;;;;;1.95;1.15;;;;;;;;;;4972971;28;20067;-85
2021/09/10 09:58:03;;;;;;;4.80;1.45;;;;;;;;;;4973090;28;20483;-85
2021/09/10 10:00:29;;;;;;;5.05;1.38;;;;;;;;;;4973076;28;20169;-85
2021/09/10 10:02:56;;;;;;;2.88;1.20;;;;;;;;;;4974266;28;20051;-86
2021/09/10 10:05:22;;;;;;;11.15;1.60;;;;;;;;;;4973083;28;20027;-85
2021/09/10 10:07:53;;;;;;;11.73;1.58;;;;;;;;;;4973061;28;20396;-87
2021/09/10 10:10:24;;;;;;;3.15;1.27;;;;;;;;;;4973111;28;20038;-87
2021/09/10 10:12:51;;;;;;;2.25;1.05;;;;;;;;;;4972986;28;20054;-85
2021/09/10 10:15:21;;;;;;;3.13;1.67;;;;;;;;;;4972874;28;20377;-85
2021/09/10 10:17:47;;;;;;;4.53;1.40;;;;;;;;;;4972942;28;20096;-85
2021/09/10 10:20:33;;;;;;;2.58;1.20;;;;;;;;;;4972855;28;20090;-86
2021/09/10 10:22:59;;;;;;;5.28;1.30;;;;;;;;;;4972813;28;20027;-85
2021/09/10 10:25:27;;;;;;;4.93;1.42;;;;;;;;;;4975634;28;20411;-88
2021/09/10 10:27:53;;;;;;;4.70;1.33;;;;;;;;;;4976318;28;20452;-85
2021/09/10 10:30:37;;;;;;;7.97;1.38;;;;;;;;;;4978160;28;20483;-83
2021/09/10 10:33:22;;;;;;;5.30;1.50;;;;;;;;;;4976274;28;20153;-85
2021/09/10 10:35:48;;;;;;;3.30;1.48;;;;;;;;;;4976225;28;20066;-83
2021/09/10 10:38:14;;;;;;;3.80;1.23;;;;;;;;;;4976245;28;20090;-84
2021/09/10 10:40:42;;;;;;;4.38;1.20;;;;;;;;;;4976136;28;20034;-85
2021/09/10 10:43:20;;;;;;;3.97;1.67;;;;;;;;;;4976192;28;20030;-85
2021/09/10 10:45:47;;;;;;;7.88;1.88;;;;;;;;;;4977405;28;20023;-85
2021/09/10 10:48:28;;;;;;;5.72;1.40;;;;;;;;;;4976192;28;20038;-84
2021/09/10 10:50:55;;;;;;;3.10;1.13;;;;;;;;;;4976016;28;20522;-87
2021/09/10 10:53:21;;;;;;;5.50;1.63;;;;;;;;;;4975986;28;20074;-86
2021/09/10 10:55:47;;;;;;;3.30;1.40;;;;;;;;;;4975821;28;20039;-84
2021/09/10 10:58:23;;;;;;;7.00;1.92;;;;;;;;;;4975938;28;20030;-85
2021/09/10 11:00:58;;;;;;;5.97;1.10;;;;;;;;;;4975773;28;20424;-84
2021/09/10 11:03:24;;;;;;;5.70;1.50;;;;;;;;;;4975609;28;20058;-84
2021/09/10 11:05:51;;;;;;;4.38;1.48;;;;;;;;;;4975632;28;20439;-85
2021/09/10 11:08:36;;;;;;;2.95;1.27;;;;;;;;;;4975678;28;20058;-88
2021/09/10 11:11:03;;;;;;;16.50;1.30;;;;;;;;;;4975650;28;20065;-87
2021/09/10 11:13:29;;;;;;;3.25;0.98;;;;;;;;;;4975343;28;20026;-85
2021/09/10 11:15:56;;;;;;;1.98;1.00;;;;;;;;;;4975525;28;20066;-86
2021/09/10 11:18:24;;;;;;;2.60;1.10;;;;;;;;;;4975455;28;20027;-85
2021/09/10 11:20:53;;;;;;;4.45;1.00;;;;;;;;;;4975456;28;20038;-87
2021/09/10 11:23:26;;;;;;;4.60;1.30;;;;;;;;;;4976511;28;20019;-86
2021/09/10 11:25:54;;;;;;;2.13;1.00;;;;;;;;;;4976411;28;20483;-83
2021/09/10 11:28:20;;;;;;;4.95;1.00;;;;;;;;;;4975213;28;20027;-85
2021/09/10 11:30:47;;;;;;;2.05;1.00;;;;;;;;;;4975297;28;20031;-86
2021/09/10 11:33:14;;;;;;;2.15;0.93;;;;;;;;;;4976460;28;20141;-85
2021/09/10 11:35:40;;;;;;;2.80;1.08;;;;;;;;;;4975386;28;20451;-86
2021/09/10 11:38:10;;;;;;;2.97;1.02;;;;;;;;;;4974451;28;20034;-85
2021/09/10 11:40:44;;;;;;;2.28;1.08;;;;;;;;;;4975019;28;20051;-85
2021/09/10 11:43:30;;;;;;;2.30;1.02;;;;;;;;;;4975041;28;20026;-83
2021/09/10 11:46:01;;;;;;;8.65;1.33;;;;;;;;;;4975051;28;20038;-85
2021/09/10 11:48:34;;;;;;;4.95;1.15;;;;;;;;;;4975062;28;20023;-85
2021/09/10 11:51:04;;;;;;;5.88;2.17;;;;;;;;;;4976177;28;20023;-86
2021/09/10 11:53:33;;;;;;;4.28;1.20;;;;;;;;;;4975947;28;20027;-84
2021/09/10 11:56:04;;;;;;;2.47;1.20;;;;;;;;;;4974902;28;20066;-83
2021/09/10 11:58:32;;;;;;;2.72;1.13;;;;;;;;;;4974669;28;20054;-86
2021/09/10 12:01:13;;;;;;;11.20;1.40;;;;;;;;;;4974358;28;20027;-85
2021/09/10 12:03:49;;;;;;;3.72;1.38;;;;;;;;;;4974608;28;20058;-86
2021/09/10 12:06:23;;;;;;;5.28;1.58;;;;;;;;;;4976178;28;20106;-90
2021/09/10 12:09:08;;;;;;;3.95;1.40;;;;;;;;;;4975002;28;20117;-84
2021/09/10 12:11:34;;;;;;;4.25;1.48;;;;;;;;;;4975803;28;20062;-82
2021/09/10 12:14:00;;;;;;;10.90;1.70;;;;;;;;;;4975813;28;20472;-83
2021/09/10 12:16:27;;;;;;;8.95;1.65;;;;;;;;;;4974301;28;20045;-83
2021/09/10 12:19:03;;;;;;;6.82;1.40;;;;;;;;;;4974472;28;20018;-81
2021/09/10 12:21:33;;;;;;;4.25;1.10;;;;;;;;;;4974362;28;20476;-85
2021/09/10 12:24:09;;;;;;;7.13;1.63;;;;;;;;;;4974222;28;20069;-84
2021/09/10 12:26:49;;;;;;;4.53;1.50;;;;;;;;;;4974174;28;20027;-85
2021/09/10 12:29:19;;;;;;;4.65;1.23;;;;;;;;;;4974211;28;20396;-84
2021/09/10 12:31:45;;;;;;;5.50;1.20;;;;;;;;;;4974147;28;20027;-85
2021/09/10 12:34:11;;;;;;;3.65;1.40;;;;;;;;;;4974207;28;20027;-85
2021/09/10 12:36:37;;;;;;;5.22;1.33;;;;;;;;;;4974474;28;20043;-81
2021/09/10 12:39:03;;;;;;;2.03;0.95;;;;;;;;;;4974057;28;20396;-85
2021/09/10 12:41:29;;;;;;;10.68;1.55;;;;;;;;;;4973976;28;20034;-85
2021/09/10 12:43:55;;;;;;;12.07;1.63;;;;;;;;;;4974061;28;20439;-84
2021/09/10 12:46:22;;;;;;;5.18;1.35;;;;;;;;;;4975250;28;20022;-84
2021/09/10 12:48:48;;;;;;;3.97;1.38;;;;;;;;;;4972864;28;20058;-83
2021/09/10 12:51:14;;;;;;;7.03;1.15;;;;;;;;;;4973856;28;20031;-85
2021/09/10 12:53:41;;;;;;;6.15;1.15;;;;;;;;;;4973817;28;20476;-82
2021/09/10 12:56:07;;;;;;;4.93;1.20;;;;;;;;;;4975584;28;20077;-84
2021/09/10 12:58:33;;;;;;;5.20;1.23;;;;;;;;;;4973817;28;20045;-84
2021/09/10 13:01:00;;;;;;;4.10;1.98;;;;;;;;;;4973920;28;20031;-84
2021/09/10 13:03:26;;;;;;;3.35;1.38;;;;;;;;;;4975076;28;20046;-85
2021/09/10 13:05:54;;;;;;;3.88;1.38;;;;;;;;;;4973773;28;20026;-82
2021/09/10 13:08:21;;;;;;;2.20;1.00;;;;;;;;;;4973632;28;20037;-84
2021/09/10 13:10:48;;;;;;;2.88;1.02;;;;;;;;;;4973807;28;20396;-84
2021/09/10 13:13:15;;;;;;;5.03;1.25;;;;;;;;;;4973471;28;20115;-85
2021/09/10 13:15:41;;;;;;;2.00;0.90;;;;;;;;;;4973397;28;20483;-85
2021/09/10 13:18:07;;;;;;;2.58;1.00;;;;;;;;;;4974753;28;20488;-85
2021/09/10 13:20:33;;;;;;;5.20;1.10;;;;;;;;;;4975051;28;20130;-83
2021/09/10 13:22:59;;;;;;;3.05;1.30;;;;;;;;;;4973392;28;20118;-85
2021/09/10 13:25:25;;;;;;;4.40;1.10;;;;;;;;;;4974769;28;20037;-83
2021/09/10 13:27:51;;;;;;;4.22;1.25;;;;;;;;;;4973896;28;20031;-83
2021/09/10 13:30:21;;;;;;;4.75;1.33;;;;;;;;;;4973538;28;20031;-83
2021/09/10 13:32:48;;;;;;;9.75;1.05;;;;;;;;;;4975036;28;20074;-86
2021/09/10 13:35:14;;;;;;;3.78;1.00;;;;;;;;;;4973119;28;20041;-83
2021/09/10 13:37:40;;;;;;;3.47;1.13;;;;;;;;;;4976901;28;20038;-86
2021/09/10 13:40:07;;;;;;;6.30;1.20;;;;;;;;;;4970727;28;20026;-87
2021/09/10 13:42:33;;;;;;;2.80;1.38;;;;;;;;;;4956414;28;20043;-86
2021/09/10 13:45:00;;;;;;;8.57;1.33;;;;;;;;;;4973305;28;20038;-84
2021/09/10 13:47:27;;;;;;;2.88;1.33;;;;;;;;;;4974456;28;20464;-83
2021/09/10 13:49:53;;;;;;;1.90;1.00;;;;;;;;;;4974350;28;20027;-87
2021/09/10 13:52:19;;;;;;;5.57;1.30;;;;;;;;;;4973129;28;20150;-85
2021/09/10 13:54:46;;;;;;;3.88;1.23;;;;;;;;;;4974223;28;20067;-83
2021/09/10 13:57:12;;;;;;;4.15;1.25;;;;;;;;;;4973091;28;20113;-84
2021/09/10 13:59:38;;;;;;;5.20;1.20;;;;;;;;;;4973316;28;20027;-86
2021/09/10 14:02:04;;;;;;;3.10;1.23;;;;;;;;;;4976906;28;20143;-88
2021/09/10 14:04:31;;;;;;;2.83;1.20;;;;;;;;;;4976908;28;20023;-85
2021/09/10 14:06:57;;;;;;;1.52;0.90;;;;;;;;;;4977995;28;20026;-88
2021/09/10 14:09:24;;;;;;;2.75;1.30;;;;;;;;;;4977059;28;20026;-88
2021/09/10 14:11:53;;;;;;;2.55;1.13;;;;;;;;;;4976911;28;20026;-89
2021/09/10 14:14:20;;;;;;;3.75;1.23;;;;;;;;;;4977702;28;20047;-90
2021/09/10 14:16:46;;;;;;;5.25;1.40;;;;;;;;;;4977254;28;20038;-90
2021/09/10 14:19:13;;;;;;;3.95;1.08;;;;;;;;;;4977165;28;20027;-88
2021/09/10 14:21:40;;;;;;;4.25;1.20;;;;;;;;;;4977427;28;20484;-89
2021/09/10 14:24:06;;;;;;;2.22;1.17;;;;;;;;;;4977316;28;20023;-90
2021/09/10 14:26:32;;;;;;;3.85;0.98;;;;;;;;;;4977070;28;20027;-87
2021/09/10 14:28:58;;;;;;;3.55;1.35;;;;;;;;;;4976604;28;20033;-90
2021/09/10 14:31:24;;;;;;;3.50;1.20;;;;;;;;;;4977076;28;20034;-89
2021/09/10 14:33:54;;;;;;;4.43;1.55;;;;;;;;;;4977994;28;20031;-89
2021/09/10 14:36:21;;;;;;;5.50;1.23;;;;;;;;;;4976875;28;20035;-88
2021/09/10 14:38:47;;;;;;;4.47;1.15;;;;;;;;;;4976492;28;20054;-87
2021/09/10 14:41:13;;;;;;;3.75;0.90;;;;;;;;;;4976634;28;20027;-88